Ashby, Minnesota
Current Conditions -  °F | °C
As of 8:37 PM on Sunday 25 Jan 2015 (Local Time) from KY63 Reporting Station
Broken Clouds Broken Clouds  
Wind Chill: -10°   Ceiling: 2300
Heat Index: -5°   Visibility: 10mi
Dew Point: -6°   Wind: 8mph
Humidity: 94%   Direction: 170°S
Pressure: 29.95"   Gusts: NA
Location:  46.09°N, 95.82°W
Report Text: KY63 260237Z AUTO 17007KT 10SM BKN023 M05/M06 A2995 RMK AO2 T10501059
Loading
Personal Weather Stations






























Interactive Weather Map New forecast layout! Learn more

10-Day Weather Forecast

Advertisements
Track Severe Weather on mobile